Time;durP1;ratioP1;P1;durP2;ratioP2;P2;SDS_P1;SDS_P2;PMS_P1;PMS_P2;Temp;Humidity;BMP_temperature;BMP_pressure;BME280_temperature;BME280_humidity;BME280_pressure;Samples;Min_cycle;Max_cycle;Signal;HPM_P1;HPM_P2
2024/04/11 00:00:15;;;;;;;9.05;6.43;;;10.10;99.90;;;;;;5382980;26;20008;-76
2024/04/11 00:02:43;;;;;;;11.35;6.68;;;10.00;99.90;;;;;;5367828;26;20009;-76
2024/04/11 00:05:09;;;;;;;13.15;7.60;;;10.00;99.90;;;;;;5346437;26;20044;-76
2024/04/11 00:07:34;;;;;;;11.10;6.35;;;10.00;99.90;;;;;;5346567;26;19997;-76
2024/04/11 00:10:00;;;;;;;9.70;6.22;;;10.00;99.90;;;;;;5380129;26;20012;-77
2024/04/11 00:12:26;;;;;;;9.52;6.25;;;10.00;99.90;;;;;;5382153;26;20341;-76
2024/04/11 00:14:51;;;;;;;11.10;6.47;;;10.00;99.90;;;;;;5361679;26;20019;-76
2024/04/11 00:17:17;;;;;;;11.15;5.93;;;10.00;99.90;;;;;;5358203;26;20008;-77
2024/04/11 00:19:43;;;;;;;9.40;6.13;;;10.00;99.90;;;;;;5381601;26;20037;-76
2024/04/11 00:22:08;;;;;;;11.88;6.47;;;9.90;99.90;;;;;;5365433;26;20085;-76
2024/04/11 00:24:35;;;;;;;11.68;6.32;;;9.90;99.90;;;;;;5382349;26;20008;-76
2024/04/11 00:27:01;;;;;;;11.70;7.07;;;9.90;99.90;;;;;;5371766;26;20009;-76
2024/04/11 00:29:27;;;;;;;12.07;6.88;;;9.90;99.90;;;;;;5345426;26;20082;-77
2024/04/11 00:31:54;;;;;;;9.25;6.13;;;9.80;99.90;;;;;;5348463;26;20438;-77
2024/04/11 00:34:23;;;;;;;9.30;6.95;;;9.80;99.90;;;;;;5382668;26;20000;-76
2024/04/11 00:36:53;;;;;;;9.93;6.13;;;9.80;99.90;;;;;;5379883;26;20082;-75
2024/04/11 00:39:20;;;;;;;10.55;5.70;;;9.70;99.90;;;;;;5409854;26;20008;-76
2024/04/11 00:41:46;;;;;;;10.00;6.32;;;9.70;99.90;;;;;;5409208;26;20020;-76
2024/04/11 00:44:12;;;;;;;7.68;6.28;;;9.70;99.90;;;;;;5382413;26;20036;-76
2024/04/11 00:46:39;;;;;;;11.75;6.93;;;9.70;99.90;;;;;;5382072;26;20012;-76
2024/04/11 00:49:05;;;;;;;11.05;6.38;;;9.70;99.90;;;;;;5355318;26;20012;-76
2024/04/11 00:51:30;;;;;;;9.90;6.80;;;9.70;99.90;;;;;;5345182;26;20009;-76
2024/04/11 00:53:58;;;;;;;7.05;6.00;;;9.70;99.90;;;;;;5345273;26;20021;-76
2024/04/11 00:56:24;;;;;;;10.60;6.18;;;9.60;99.90;;;;;;5346775;26;20401;-77
2024/04/11 00:58:51;;;;;;;10.27;5.65;;;9.50;99.90;;;;;;5345025;26;20074;-77
2024/04/11 01:01:16;;;;;;;7.40;5.88;;;9.50;99.90;;;;;;5346084;26;20037;-76
2024/04/11 01:03:44;;;;;;;11.88;6.55;;;9.40;99.90;;;;;;5345317;26;20393;-77
2024/04/11 01:06:10;;;;;;;10.20;6.15;;;9.40;99.90;;;;;;5347631;26;20016;-77
2024/04/11 01:08:36;;;;;;;10.65;6.38;;;9.30;99.90;;;;;;5356766;26;20019;-77
2024/04/11 01:11:02;;;;;;;11.35;7.43;;;9.20;99.90;;;;;;5408839;26;20000;-77
2024/04/11 01:13:29;;;;;;;15.52;8.40;;;9.20;99.90;;;;;;5345573;26;19997;-77
2024/04/11 01:15:57;;;;;;;12.38;7.88;;;9.10;99.90;;;;;;5374058;26;20611;-77
2024/04/11 01:18:25;;;;;;;13.20;8.48;;;9.00;99.90;;;;;;5369079;26;20004;-77
2024/04/11 01:20:51;;;;;;;14.40;8.13;;;8.90;99.90;;;;;;5372473;26;20013;-77
2024/04/11 01:23:17;;;;;;;15.07;8.30;;;8.80;99.90;;;;;;5370386;26;20452;-77
2024/04/11 01:25:43;;;;;;;16.45;9.63;;;8.70;99.90;;;;;;5380270;26;20000;-77
2024/04/11 01:28:09;;;;;;;16.00;8.20;;;8.60;99.90;;;;;;5373292;26;20014;-77
2024/04/11 01:30:35;;;;;;;11.57;7.43;;;8.60;99.90;;;;;;5345146;26;20063;-77
2024/04/11 01:33:01;;;;;;;11.25;7.70;;;8.50;99.90;;;;;;5366369;26;20012;-77
2024/04/11 01:35:31;;;;;;;13.10;7.75;;;8.40;99.90;;;;;;5380070;26;20022;-77
2024/04/11 01:37:58;;;;;;;13.00;7.07;;;8.40;99.90;;;;;;5363355;26;20075;-77
2024/04/11 01:40:25;;;;;;;21.92;11.27;;;8.40;99.90;;;;;;5346853;26;20328;-76
2024/04/11 01:42:52;;;;;;;26.67;14.30;;;8.30;99.90;;;;;;5422646;26;20004;-76
2024/04/11 01:45:17;;;;;;;34.15;16.58;;;8.30;99.90;;;;;;5358201;26;20041;-76
2024/04/11 01:47:43;;;;;;;45.58;20.77;;;8.30;99.90;;;;;;5344080;26;20443;-76
2024/04/11 01:50:09;;;;;;;50.60;23.75;;;8.20;99.90;;;;;;5344309;26;20324;-76
2024/04/11 01:52:35;;;;;;;19.38;10.35;;;8.30;99.90;;;;;;5346352;26;20008;-76
2024/04/11 01:55:01;;;;;;;27.60;12.98;;;8.20;99.90;;;;;;5346200;26;20009;-76
2024/04/11 01:57:27;;;;;;;32.13;14.60;;;8.20;99.90;;;;;;5345685;26;20035;-75
2024/04/11 01:59:53;;;;;;;31.75;15.30;;;8.20;99.90;;;;;;5346635;26;20008;-76
2024/04/11 02:02:22;;;;;;;21.83;10.73;;;8.30;99.90;;;;;;5344324;26;20009;-75
2024/04/11 02:04:48;;;;;;;24.83;12.63;;;8.30;99.90;;;;;;5346108;26;20461;-76
2024/04/11 02:07:14;;;;;;;27.48;12.80;;;8.30;99.90;;;;;;5346202;26;19993;-76
2024/04/11 02:09:41;;;;;;;28.80;14.23;;;8.30;99.90;;;;;;5370443;26;20004;-76
2024/04/11 02:12:06;;;;;;;26.85;13.02;;;8.30;99.90;;;;;;5361810;26;20008;-76
2024/04/11 02:14:32;;;;;;;21.23;11.32;;;8.30;99.90;;;;;;5366574;26;20510;-76
2024/04/11 02:16:59;;;;;;;20.15;11.32;;;8.30;99.90;;;;;;5355687;26;20352;-76
2024/04/11 02:19:26;;;;;;;18.17;11.38;;;8.30;99.90;;;;;;5355542;26;20016;-76
2024/04/11 02:21:52;;;;;;;13.15;9.10;;;8.30;99.90;;;;;;5380942;26;20016;-76
2024/04/11 02:24:18;;;;;;;15.13;9.88;;;8.30;99.90;;;;;;5382167;26;20052;-75
2024/04/11 02:26:48;;;;;;;15.32;8.43;;;8.40;99.90;;;;;;5383971;26;20442;-76
2024/04/11 02:29:15;;;;;;;13.80;8.60;;;8.40;99.90;;;;;;5383916;26;20012;-76
2024/04/11 02:31:42;;;;;;;16.58;8.40;;;8.40;99.90;;;;;;5382363;26;20000;-76
2024/04/11 02:34:08;;;;;;;12.98;7.82;;;8.40;99.90;;;;;;5378560;26;20019;-76
2024/04/11 02:36:34;;;;;;;12.50;7.78;;;8.40;99.90;;;;;;5440831;26;20000;-76
2024/04/11 02:39:01;;;;;;;12.27;7.75;;;8.40;99.90;;;;;;5380272;26;20019;-76
2024/04/11 02:41:30;;;;;;;10.80;7.63;;;8.40;99.90;;;;;;5339552;26;20001;-76
2024/04/11 02:43:56;;;;;;;14.15;7.88;;;8.40;99.90;;;;;;5317446;26;20002;-76
2024/04/11 02:46:22;;;;;;;11.63;8.82;;;8.40;99.90;;;;;;5384568;26;20011;-77
2024/04/11 02:48:48;;;;;;;19.42;10.93;;;8.40;99.90;;;;;;5383684;26;20000;-77
2024/04/11 02:51:15;;;;;;;15.07;10.38;;;8.40;99.90;;;;;;5381562;26;20442;-76
2024/04/11 02:53:42;;;;;;;18.42;10.07;;;8.30;99.90;;;;;;5376106;26;20009;-77
2024/04/11 02:56:08;;;;;;;14.43;9.30;;;8.30;99.90;;;;;;5351768;26;20009;-76
2024/04/11 02:58:34;;;;;;;14.52;8.23;;;8.30;99.90;;;;;;5383902;26;19996;-76
2024/04/11 03:01:01;;;;;;;13.35;9.40;;;8.30;99.90;;;;;;5353350;26;20052;-76
2024/04/11 03:03:27;;;;;;;13.65;8.70;;;8.40;99.90;;;;;;5324976;26;20016;-76
2024/04/11 03:05:52;;;;;;;19.60;10.30;;;8.40;99.90;;;;;;5398238;26;20017;-76
2024/04/11 03:08:19;;;;;;;13.73;9.07;;;8.40;99.90;;;;;;5418824;26;20008;-76
2024/04/11 03:10:44;;;;;;;20.00;12.00;;;8.40;99.90;;;;;;5383288;26;20004;-76
2024/04/11 03:13:10;;;;;;;19.77;11.77;;;8.50;99.90;;;;;;5381305;26;20011;-76
2024/04/11 03:15:36;;;;;;;21.17;13.13;;;8.50;99.90;;;;;;5383134;26;20023;-77
2024/04/11 03:18:01;;;;;;;28.73;17.92;;;8.50;99.90;;;;;;5381509;26;20070;-77
2024/04/11 03:20:27;;;;;;;27.15;15.10;;;8.50;99.90;;;;;;5382941;26;20388;-77
2024/04/11 03:22:53;;;;;;;24.58;14.75;;;8.50;99.90;;;;;;5381273;26;20427;-77
2024/04/11 03:25:19;;;;;;;27.10;15.27;;;8.50;99.90;;;;;;5365405;26;20070;-76
2024/04/11 03:27:45;;;;;;;24.02;13.55;;;8.50;99.90;;;;;;5376440;26;20014;-77
2024/04/11 03:30:10;;;;;;;25.60;14.30;;;8.50;99.90;;;;;;5348686;26;20070;-77
2024/04/11 03:32:36;;;;;;;22.92;14.00;;;8.50;99.90;;;;;;5382949;26;20023;-77
2024/04/11 03:35:04;;;;;;;28.70;15.27;;;8.50;99.90;;;;;;5433616;26;20008;-76
2024/04/11 03:37:29;;;;;;;23.17;12.82;;;8.50;99.90;;;;;;5381424;26;20073;-77
2024/04/11 03:39:57;;;;;;;24.83;13.65;;;8.50;99.90;;;;;;5370162;26;20024;-77
2024/04/11 03:42:23;;;;;;;16.08;9.48;;;8.50;99.90;;;;;;5381795;26;20005;-77
2024/04/11 03:44:49;;;;;;;18.40;11.25;;;8.50;99.90;;;;;;5336384;26;20086;-76
2024/04/11 03:47:15;;;;;;;16.42;11.70;;;8.40;99.90;;;;;;5380957;26;20464;-76
2024/04/11 03:49:41;;;;;;;16.02;10.45;;;8.40;99.90;;;;;;5383248;26;20004;-76
2024/04/11 03:52:07;;;;;;;16.88;10.70;;;8.30;99.90;;;;;;5383034;26;20008;-76
2024/04/11 03:54:37;;;;;;;17.67;10.18;;;8.40;99.90;;;;;;5381048;26;20326;-76
2024/04/11 03:57:04;;;;;;;15.85;9.07;;;8.40;99.90;;;;;;5380769;26;20015;-77
2024/04/11 03:59:30;;;;;;;15.50;8.95;;;8.40;99.90;;;;;;5382313;26;20008;-76
2024/04/11 04:01:55;;;;;;;14.05;9.68;;;8.40;99.90;;;;;;5382587;26;20010;-77
2024/04/11 04:04:21;;;;;;;16.05;9.60;;;8.50;99.90;;;;;;5382701;26;20074;-77
2024/04/11 04:06:46;;;;;;;13.63;9.32;;;8.50;99.90;;;;;;5348067;26;20345;-77
2024/04/11 04:09:12;;;;;;;13.65;9.63;;;8.50;99.90;;;;;;5382639;26;20004;-77
2024/04/11 04:11:38;;;;;;;23.90;12.85;;;8.60;99.90;;;;;;5382593;26;20035;-76
2024/04/11 04:14:08;;;;;;;32.70;16.42;;;8.60;99.90;;;;;;5381914;26;20019;-77
2024/04/11 04:16:35;;;;;;;34.28;16.20;;;8.60;99.90;;;;;;5382204;26;20082;-77
2024/04/11 04:19:02;;;;;;;25.75;13.80;;;8.70;99.90;;;;;;5379907;26;20012;-76
2024/04/11 04:21:28;;;;;;;22.77;12.55;;;8.70;99.90;;;;;;5380055;26;20019;-76
2024/04/11 04:24:02;;;;;;;20.48;11.38;;;8.70;99.90;;;;;;5382051;26;20373;-76
2024/04/11 04:26:30;;;;;;;18.77;11.20;;;8.70;99.90;;;;;;5378520;26;20009;-76
2024/04/11 04:28:57;;;;;;;20.20;12.20;;;8.80;99.90;;;;;;5377794;26;20026;-77
2024/04/11 04:31:25;;;;;;;19.25;11.57;;;8.70;99.90;;;;;;5377774;26;20000;-76
2024/04/11 04:33:52;;;;;;;22.55;11.63;;;8.80;99.90;;;;;;5381306;26;20012;-76
2024/04/11 04:36:26;;;;;;;17.88;11.13;;;8.90;99.90;;;;;;5382403;26;20004;-77
2024/04/11 04:38:53;;;;;;;17.40;9.85;;;8.90;99.90;;;;;;5380314;26;20023;-77
2024/04/11 04:41:23;;;;;;;12.27;9.45;;;9.00;99.90;;;;;;5380534;26;20012;-77
2024/04/11 04:43:54;;;;;;;13.48;8.23;;;9.00;99.90;;;;;;5382350;26;20359;-77
2024/04/11 04:46:21;;;;;;;16.13;7.53;;;9.10;99.90;;;;;;5382328;26;20042;-77
2024/04/11 04:48:47;;;;;;;12.88;7.93;;;9.20;99.90;;;;;;5379672;26;20012;-77
2024/04/11 04:51:16;;;;;;;12.25;7.22;;;9.20;99.90;;;;;;5379815;26;20107;-77
2024/04/11 04:53:41;;;;;;;12.23;7.38;;;9.30;99.90;;;;;;5381842;26;20018;-76
2024/04/11 04:56:09;;;;;;;9.95;6.78;;;9.30;99.90;;;;;;5381361;26;20024;-76
2024/04/11 04:58:36;;;;;;;12.43;7.18;;;9.40;99.90;;;;;;5379877;26;20173;-77
2024/04/11 05:01:03;;;;;;;10.02;6.97;;;9.40;99.90;;;;;;5379501;26;20048;-77
2024/04/11 05:03:31;;;;;;;10.60;7.18;;;9.50;99.90;;;;;;5376794;26;20019;-77
2024/04/11 05:05:58;;;;;;;13.05;7.47;;;9.50;99.90;;;;;;5378867;26;20363;-76
2024/04/11 05:08:24;;;;;;;12.43;7.30;;;9.60;99.90;;;;;;5373219;26;20012;-76
2024/04/11 05:10:53;;;;;;;11.52;8.05;;;9.60;99.90;;;;;;5373572;26;20007;-78
2024/04/11 05:13:26;;;;;;;15.15;7.70;;;9.60;99.90;;;;;;5379490;26;20027;-77
2024/04/11 05:15:56;;;;;;;12.00;7.32;;;9.60;99.90;;;;;;5376659;26;20090;-77
2024/04/11 05:18:22;;;;;;;9.25;5.85;;;9.70;99.90;;;;;;5381659;26;20458;-77
2024/04/11 05:20:47;;;;;;;10.20;6.57;;;9.70;99.90;;;;;;5379134;26;20023;-77
2024/04/11 05:23:14;;;;;;;12.65;7.00;;;9.80;99.90;;;;;;5354297;26;20019;-77
2024/04/11 05:25:39;;;;;;;13.10;6.90;;;9.80;99.90;;;;;;5333269;26;20025;-77
2024/04/11 05:28:07;;;;;;;12.02;7.45;;;9.90;99.90;;;;;;5376650;26;20082;-76
2024/04/11 05:30:34;;;;;;;10.52;6.70;;;9.90;99.90;;;;;;5379244;26;20015;-74
2024/04/11 05:33:00;;;;;;;16.48;8.38;;;10.00;99.90;;;;;;5379287;26;20039;-77
2024/04/11 05:35:26;;;;;;;13.00;9.05;;;10.00;99.90;;;;;;5378231;26;20016;-76
2024/04/11 05:37:55;;;;;;;9.63;6.68;;;10.20;99.90;;;;;;5381362;26;20004;-77
2024/04/11 05:40:21;;;;;;;10.65;7.55;;;10.30;99.90;;;;;;5387113;26;20018;-78
2024/04/11 05:42:48;;;;;;;8.05;5.50;;;10.40;99.90;;;;;;5389106;26;20011;-77
2024/04/11 05:45:21;;;;;;;11.35;6.78;;;10.40;99.90;;;;;;5390831;26;20338;-77
2024/04/11 05:47:47;;;;;;;13.30;7.50;;;10.50;99.90;;;;;;5388527;26;20080;-77
2024/04/11 05:50:15;;;;;;;8.00;6.10;;;10.60;99.90;;;;;;5398385;26;20008;-78
2024/04/11 05:52:42;;;;;;;11.45;5.65;;;10.60;99.90;;;;;;5391391;26;20000;-77
2024/04/11 05:55:10;;;;;;;9.85;5.90;;;10.60;99.90;;;;;;5380030;26;20028;-75
2024/04/11 05:57:37;;;;;;;7.63;5.57;;;10.70;99.90;;;;;;5380298;26;20004;-77
2024/04/11 06:00:08;;;;;;;9.55;6.28;;;10.60;99.90;;;;;;5374250;26;20009;-77
2024/04/11 06:02:38;;;;;;;9.25;4.80;;;10.70;99.90;;;;;;5385743;26;20031;-77
2024/04/11 06:05:06;;;;;;;6.75;4.68;;;10.90;99.90;;;;;;5380362;26;20457;-77
2024/04/11 06:07:32;;;;;;;10.20;5.05;;;10.90;96.90;;;;;;5378638;26;20004;-77
2024/04/11 06:10:00;;;;;;;6.53;4.35;;;11.00;98.00;;;;;;5377943;26;20023;-77
2024/04/11 06:12:26;;;;;;;6.25;5.05;;;10.90;92.90;;;;;;5380858;26;20023;-77
2024/04/11 06:14:53;;;;;;;10.30;5.38;;;11.00;92.70;;;;;;5377715;26;20016;-77
2024/04/11 06:17:20;;;;;;;9.73;5.22;;;11.10;92.70;;;;;;5367022;26;20008;-78
2024/04/11 06:19:45;;;;;;;7.53;4.65;;;11.20;91.60;;;;;;5375190;26;20005;-77
2024/04/11 06:22:11;;;;;;;8.98;4.75;;;11.30;91.00;;;;;;5380305;26;20049;-78
2024/04/11 06:24:38;;;;;;;5.97;4.30;;;11.30;88.00;;;;;;5387752;26;20011;-78
2024/04/11 06:27:05;;;;;;;7.35;4.40;;;11.40;88.10;;;;;;5394704;26;20012;-77
2024/04/11 06:29:37;;;;;;;7.60;4.32;;;11.40;86.60;;;;;;5389770;26;20027;-78
2024/04/11 06:32:06;;;;;;;6.18;4.35;;;11.40;86.80;;;;;;5375216;26;20015;-79
2024/04/11 06:34:33;;;;;;;8.43;4.78;;;11.40;88.20;;;;;;5377162;26;20005;-79
2024/04/11 06:36:59;;;;;;;7.50;5.22;;;11.50;87.70;;;;;;5380159;26;20009;-79
2024/04/11 06:39:25;;;;;;;11.32;4.93;;;11.50;87.60;;;;;;5394933;26;20025;-79
2024/04/11 06:41:51;;;;;;;11.57;5.88;;;11.50;88.50;;;;;;5378896;26;20062;-79
2024/04/11 06:44:17;;;;;;;6.28;5.43;;;11.50;88.40;;;;;;5376760;26;20058;-79
2024/04/11 06:46:44;;;;;;;7.95;5.30;;;11.60;90.00;;;;;;5362941;26;20005;-79
2024/04/11 06:49:12;;;;;;;6.03;5.38;;;11.60;90.10;;;;;;5379726;26;20075;-80
2024/04/11 06:51:38;;;;;;;10.85;5.40;;;11.60;91.30;;;;;;5379176;26;20048;-79
2024/04/11 06:54:07;;;;;;;7.65;5.18;;;11.60;90.60;;;;;;5378937;26;20008;-79
2024/04/11 06:56:33;;;;;;;10.00;5.88;;;11.60;91.10;;;;;;5380122;26;20017;-79
2024/04/11 06:59:00;;;;;;;8.18;5.50;;;11.50;90.30;;;;;;5379442;26;20007;-79
2024/04/11 07:01:26;;;;;;;23.05;7.47;;;11.50;90.20;;;;;;5381957;26;20036;-79
2024/04/11 07:03:53;;;;;;;10.63;5.85;;;11.60;91.00;;;;;;5381285;26;20442;-79
2024/04/11 07:08:45;;;;;;;6.65;4.68;;;11.70;90.00;;;;;;5390017;26;20008;-78
2024/04/11 07:11:20;;;;;;;8.63;5.63;;;11.80;89.80;;;;;;5403086;26;20342;-78
2024/04/11 07:13:50;;;;;;;8.88;5.40;;;11.70;89.30;;;;;;5405210;26;20323;-79
2024/04/11 07:16:17;;;;;;;10.23;4.93;;;11.80;88.50;;;;;;5379956;26;20012;-79
2024/04/11 07:18:54;;;;;;;6.13;5.10;;;11.80;88.90;;;;;;5361643;26;20103;-79
2024/04/11 07:21:20;;;;;;;9.82;6.22;;;11.80;87.60;;;;;;5377344;26;20032;-79
2024/04/11 07:23:47;;;;;;;9.25;6.45;;;11.90;89.00;;;;;;5366634;26;20024;-79
2024/04/11 07:26:15;;;;;;;9.32;5.85;;;12.00;88.20;;;;;;5373398;26;20012;-79
2024/04/11 07:28:45;;;;;;;11.48;6.10;;;12.00;86.60;;;;;;5383004;26;20004;-79
2024/04/11 07:31:12;;;;;;;10.90;6.30;;;12.10;86.90;;;;;;5379656;26;20457;-78
2024/04/11 07:33:38;;;;;;;13.02;5.20;;;12.30;86.10;;;;;;5382250;26;20473;-79
2024/04/11 07:36:07;;;;;;;19.10;6.55;;;12.30;84.40;;;;;;5382408;26;20004;-78
2024/04/11 07:38:34;;;;;;;8.27;6.47;;;12.30;84.00;;;;;;5380140;26;20048;-78
2024/04/11 07:41:12;;;;;;;7.38;6.25;;;12.30;83.80;;;;;;5379952;26;19997;-79
2024/04/11 07:43:38;;;;;;;10.27;5.75;;;12.40;83.70;;;;;;5382698;26;20001;-79
2024/04/11 07:46:04;;;;;;;9.57;5.57;;;12.40;81.20;;;;;;5381938;26;20087;-78
2024/04/11 07:48:31;;;;;;;7.85;5.05;;;12.50;80.40;;;;;;5361143;26;20005;-78
2024/04/11 07:51:05;;;;;;;7.57;5.40;;;12.50;78.30;;;;;;5347048;26;20082;-78
2024/04/11 07:53:31;;;;;;;10.48;5.00;;;12.50;78.30;;;;;;5393797;26;20021;-79
2024/04/11 07:55:57;;;;;;;8.65;4.53;;;12.50;77.10;;;;;;5371249;26;20013;-79
2024/04/11 07:58:23;;;;;;;7.00;4.65;;;12.60;76.00;;;;;;5346832;26;20052;-78
2024/04/11 08:00:50;;;;;;;7.47;4.20;;;12.70;76.40;;;;;;5373670;26;20008;-78
2024/04/11 08:03:18;;;;;;;6.95;4.75;;;12.70;75.00;;;;;;5381952;26;20001;-78
2024/04/11 08:05:44;;;;;;;6.53;4.60;;;12.80;74.60;;;;;;5375464;26;20037;-78
2024/04/11 08:08:15;;;;;;;6.78;4.63;;;12.90;74.40;;;;;;5381834;26;20004;-78
2024/04/11 08:10:40;;;;;;;4.97;4.22;;;12.90;72.70;;;;;;5345742;26;20033;-78
2024/04/11 08:13:08;;;;;;;7.40;4.53;;;12.90;73.00;;;;;;5370581;26;20926;-78
2024/04/11 08:15:34;;;;;;;11.43;4.95;;;12.90;72.20;;;;;;5364399;26;20013;-78
2024/04/11 08:18:03;;;;;;;7.88;5.07;;;13.00;72.30;;;;;;5375173;26;20025;-79
2024/04/11 08:20:29;;;;;;;9.90;4.95;;;13.10;75.00;;;;;;5378674;26;20026;-78
2024/04/11 08:22:57;;;;;;;8.90;4.70;;;13.20;74.10;;;;;;5378869;26;20008;-78
2024/04/11 08:25:24;;;;;;;8.30;4.07;;;13.20;72.30;;;;;;5381203;26;20465;-79
2024/04/11 08:27:49;;;;;;;6.35;4.72;;;13.30;72.70;;;;;;5379921;26;20023;-78
2024/04/11 08:30:15;;;;;;;6.00;4.43;;;13.40;72.40;;;;;;5380030;26;20012;-79
2024/04/11 08:32:47;;;;;;;6.80;4.00;;;13.40;72.20;;;;;;5378555;26;20275;-80
2024/04/11 08:35:17;;;;;;;4.65;3.88;;;13.40;71.60;;;;;;5378626;26;20086;-79
2024/04/11 08:37:45;;;;;;;5.80;3.95;;;13.50;70.40;;;;;;5377094;26;20792;-79
2024/04/11 08:40:11;;;;;;;8.27;4.75;;;13.40;70.10;;;;;;5376101;26;20077;-79
2024/04/11 08:42:43;;;;;;;7.90;3.95;;;13.50;70.60;;;;;;5377742;26;20015;-79
2024/04/11 08:45:09;;;;;;;7.18;4.72;;;13.70;71.10;;;;;;5376325;26;20338;-80
2024/04/11 08:47:35;;;;;;;7.57;3.75;;;13.90;69.60;;;;;;5376987;26;20019;-80
2024/04/11 08:50:02;;;;;;;5.13;3.20;;;13.90;68.20;;;;;;5378668;26;20069;-79
2024/04/11 08:52:39;;;;;;;5.35;3.60;;;14.00;68.80;;;;;;5379718;26;20321;-79
2024/04/11 08:55:06;;;;;;;8.60;4.18;;;13.90;67.90;;;;;;5409977;26;20008;-79
2024/04/11 08:57:32;;;;;;;6.47;3.90;;;14.10;67.90;;;;;;5386032;26;20017;-80
2024/04/11 09:00:02;;;;;;;5.32;3.45;;;14.20;67.60;;;;;;5364178;26;20019;-80
2024/04/11 09:02:28;;;;;;;4.68;3.25;;;14.20;66.80;;;;;;5380001;26;20008;-79
2024/04/11 09:04:53;;;;;;;5.95;3.40;;;14.40;67.60;;;;;;5381904;26;20464;-79
2024/04/11 09:07:22;;;;;;;9.10;3.67;;;14.40;67.90;;;;;;5380326;26;20322;-79
2024/04/11 09:09:51;;;;;;;3.22;2.92;;;14.60;67.80;;;;;;5373524;26;20355;-79
2024/04/11 09:12:19;;;;;;;3.40;3.00;;;14.70;66.40;;;;;;5381620;26;20000;-80
2024/04/11 09:14:45;;;;;;;6.72;2.90;;;14.70;65.80;;;;;;5381934;26;20430;-79
2024/04/11 09:17:14;;;;;;;7.15;3.90;;;14.80;65.10;;;;;;5380002;26;20019;-80
2024/04/11 09:19:45;;;;;;;7.85;3.28;;;14.80;65.10;;;;;;5382210;26;19996;-80
2024/04/11 09:22:12;;;;;;;4.05;3.35;;;14.80;65.40;;;;;;5379829;26;20325;-80
2024/04/11 09:24:45;;;;;;;5.28;3.42;;;14.80;64.50;;;;;;5380577;26;20411;-80
2024/04/11 09:27:16;;;;;;;3.92;2.88;;;14.90;64.00;;;;;;5380025;26;20051;-80
2024/04/11 09:29:46;;;;;;;3.53;2.73;;;14.90;63.50;;;;;;5380245;26;20001;-80
2024/04/11 09:32:15;;;;;;;3.67;2.90;;;15.10;64.50;;;;;;5381744;26;20050;-80
2024/04/11 09:34:42;;;;;;;7.90;3.22;;;15.10;63.30;;;;;;5380481;26;20006;-80
2024/04/11 09:37:14;;;;;;;5.90;3.63;;;15.20;62.60;;;;;;5381480;26;20016;-80
2024/04/11 09:39:49;;;;;;;6.57;3.13;;;15.20;62.90;;;;;;5381576;26;20358;-80
2024/04/11 09:42:18;;;;;;;3.20;2.90;;;15.40;63.50;;;;;;5379832;26;20000;-80
2024/04/11 09:44:48;;;;;;;3.97;2.80;;;15.40;62.50;;;;;;5379787;26;20019;-80
2024/04/11 09:47:31;;;;;;;3.95;2.95;;;15.60;61.70;;;;;;5381294;26;20001;-80
2024/04/11 09:50:00;;;;;;;3.25;2.40;;;15.80;62.20;;;;;;5379340;26;20391;-79
2024/04/11 09:52:28;;;;;;;6.18;2.95;;;15.80;62.90;;;;;;5379389;26;20547;-80
2024/04/11 09:55:02;;;;;;;5.50;2.53;;;15.60;60.50;;;;;;5381641;26;20000;-79
2024/04/11 09:57:29;;;;;;;5.30;2.72;;;15.70;62.40;;;;;;5381197;26;20004;-79
2024/04/11 09:59:55;;;;;;;3.00;2.22;;;15.80;59.60;;;;;;5379750;26;20018;-80
2024/04/11 10:02:24;;;;;;;4.13;2.35;;;15.80;58.80;;;;;;5379718;26;20081;-80
2024/04/11 10:04:57;;;;;;;3.20;2.90;;;15.80;59.00;;;;;;5379574;26;20367;-79
2024/04/11 10:07:25;;;;;;;3.22;2.90;;;15.90;59.90;;;;;;5378843;26;19996;-79
2024/04/11 10:09:54;;;;;;;4.22;2.53;;;16.00;61.60;;;;;;5381142;26;20004;-79
2024/04/11 10:12:20;;;;;;;2.50;2.20;;;16.20;61.20;;;;;;5379035;26;20015;-80
2024/04/11 10:14:49;;;;;;;5.80;2.88;;;16.30;59.50;;;;;;5371599;26;20004;-79
2024/04/11 10:17:15;;;;;;;5.13;3.10;;;16.30;58.80;;;;;;5378541;26;20000;-80
2024/04/11 10:19:43;;;;;;;2.67;2.47;;;16.30;60.10;;;;;;5381610;26;20074;-80
2024/04/11 10:22:15;;;;;;;4.50;2.30;;;16.40;60.30;;;;;;5378815;26;20000;-79
2024/04/11 10:24:44;;;;;;;5.25;2.60;;;16.60;60.10;;;;;;5381107;26;20000;-80
2024/04/11 10:27:12;;;;;;;3.85;2.60;;;16.70;58.70;;;;;;5380709;26;20000;-80
2024/04/11 10:29:46;;;;;;;3.47;2.40;;;16.50;58.50;;;;;;5378961;26;20382;-80
2024/04/11 10:32:22;;;;;;;3.20;2.10;;;16.60;58.10;;;;;;5380746;26;20000;-80
2024/04/11 10:34:57;;;;;;;5.45;2.90;;;16.60;57.90;;;;;;5379457;26;20004;-80
2024/04/11 10:37:26;;;;;;;4.18;2.65;;;16.50;58.10;;;;;;5384348;26;20008;-80
2024/04/11 10:39:58;;;;;;;4.22;2.85;;;16.60;57.40;;;;;;5349075;26;20083;-79
2024/04/11 10:42:36;;;;;;;2.92;2.58;;;16.60;57.00;;;;;;5348756;26;20036;-80
2024/04/11 10:45:07;;;;;;;3.53;2.25;;;16.60;55.90;;;;;;5363803;26;20015;-79
2024/04/11 10:47:35;;;;;;;4.22;2.33;;;16.80;56.50;;;;;;5365376;26;20000;-79
2024/04/11 10:50:09;;;;;;;3.25;2.30;;;16.80;55.60;;;;;;5378962;26;20039;-80
2024/04/11 10:52:45;;;;;;;3.08;2.78;;;16.80;57.30;;;;;;5376245;26;19996;-79
2024/04/11 10:55:22;;;;;;;3.47;2.40;;;16.70;58.00;;;;;;5377819;26;20016;-79
2024/04/11 10:58:00;;;;;;;4.18;2.83;;;16.70;57.10;;;;;;5377269;26;20074;-80
2024/04/11 11:01:07;;;;;;;3.53;2.33;;;16.70;57.90;;;;;;5381203;26;20357;-79
2024/04/11 11:03:14;;;;;;;3.20;2.50;;;16.90;57.80;;;;;;5379718;26;20004;-78
2024/04/11 11:05:45;;;;;;;4.25;2.30;;;17.00;58.10;;;;;;5379645;26;20058;-77
2024/04/11 11:08:12;;;;;;;3.83;2.70;;;17.00;58.40;;;;;;5381883;26;20499;-78
2024/04/11 11:10:40;;;;;;;2.92;2.13;;;17.10;58.40;;;;;;5380190;26;21726;-78
2024/04/11 11:13:06;;;;;;;4.45;2.42;;;17.00;57.20;;;;;;5373704;26;20571;-78
2024/04/11 11:15:34;;;;;;;4.45;2.72;;;16.90;57.10;;;;;;5379765;26;20452;-78
2024/04/11 11:18:00;;;;;;;4.82;2.63;;;16.90;56.70;;;;;;5380229;26;20525;-80
2024/04/11 11:20:26;;;;;;;3.63;2.70;;;17.00;56.60;;;;;;5381272;26;20012;-79
2024/04/11 11:22:56;;;;;;;2.92;2.60;;;16.90;57.00;;;;;;5381549;26;20032;-80
2024/04/11 11:25:23;;;;;;;6.82;2.38;;;16.90;56.60;;;;;;5381791;26;20011;-80
2024/04/11 11:27:50;;;;;;;3.17;2.80;;;16.80;57.00;;;;;;5380789;26;20023;-78
2024/04/11 11:30:16;;;;;;;2.97;2.30;;;16.60;56.60;;;;;;5380817;26;20062;-79
2024/04/11 11:32:43;;;;;;;4.05;2.47;;;16.70;56.80;;;;;;5380953;26;20012;-78
2024/04/11 11:35:12;;;;;;;3.85;2.30;;;16.90;57.00;;;;;;5379826;26;20050;-79
2024/04/11 11:37:38;;;;;;;4.28;3.20;;;17.00;57.50;;;;;;5381081;26;20013;-79
2024/04/11 11:40:38;;;;;;;3.92;2.70;;;17.00;57.40;;;;;;5379635;26;21281;-77
2024/04/11 11:42:56;;;;;;;3.33;2.13;;;17.00;57.90;;;;;;5376024;26;20008;-78
2024/04/11 11:45:28;;;;;;;3.50;1.98;;;17.10;56.90;;;;;;5372071;26;20005;-78
2024/04/11 11:47:57;;;;;;;3.67;2.47;;;17.20;56.60;;;;;;5357508;26;20020;-78
2024/04/11 11:50:23;;;;;;;4.97;1.98;;;17.00;56.80;;;;;;5380694;26;20434;-78
2024/04/11 11:52:49;;;;;;;2.88;2.55;;;17.10;56.90;;;;;;5380232;26;20325;-78
2024/04/11 11:55:19;;;;;;;5.43;2.28;;;17.00;56.60;;;;;;5379369;26;20004;-78
2024/04/11 11:57:54;;;;;;;3.17;2.42;;;17.10;57.60;;;;;;5376718;26;20084;-77
2024/04/11 12:00:22;;;;;;;2.88;2.35;;;17.10;57.00;;;;;;5376020;26;20054;-78
2024/04/11 12:02:52;;;;;;;3.67;2.33;;;17.00;56.60;;;;;;5379014;26;20008;-78
2024/04/11 12:05:27;;;;;;;6.88;2.55;;;16.90;57.30;;;;;;5380861;26;20341;-78
2024/04/11 12:08:05;;;;;;;2.75;2.33;;;16.90;55.90;;;;;;5383686;26;20008;-78
2024/04/11 12:13:30;;;;;;;2.78;2.38;;;17.10;56.20;;;;;;5391592;26;20047;-78
2024/04/11 12:15:58;;;;;;;3.08;2.63;;;17.10;56.90;;;;;;5383402;26;20080;-77
2024/04/11 12:18:24;;;;;;;7.78;2.58;;;16.90;56.90;;;;;;5413795;26;20330;-78
2024/04/11 12:20:57;;;;;;;5.85;2.90;;;16.80;56.60;;;;;;5374155;26;20082;-78
2024/04/11 12:23:23;;;;;;;3.05;2.63;;;16.70;57.40;;;;;;5374050;26;20019;-77
2024/04/11 12:25:50;;;;;;;7.32;3.10;;;16.90;56.80;;;;;;5392296;26;20465;-78
2024/04/11 12:28:19;;;;;;;3.78;2.70;;;17.00;56.70;;;;;;5388600;26;20058;-77
2024/04/11 12:30:59;;;;;;;4.25;3.08;;;16.90;58.20;;;;;;5388090;26;20003;-77
2024/04/11 12:33:27;;;;;;;7.32;3.17;;;16.40;58.10;;;;;;5381607;26;20004;-78
2024/04/11 12:35:56;;;;;;;4.75;2.83;;;16.50;59.90;;;;;;5379997;26;20353;-77
2024/04/11 12:38:29;;;;;;;4.93;2.90;;;16.40;58.90;;;;;;5375868;26;20085;-78
2024/04/11 12:41:01;;;;;;;7.55;3.33;;;16.40;59.40;;;;;;5380004;26;20023;-78
2024/04/11 12:43:28;;;;;;;7.22;3.20;;;16.20;59.10;;;;;;5379328;26;20345;-77
2024/04/11 12:45:56;;;;;;;4.60;2.78;;;16.10;58.80;;;;;;5383467;26;20044;-77
2024/04/11 12:48:23;;;;;;;3.47;2.22;;;16.10;59.20;;;;;;5413145;26;20532;-78
2024/04/11 12:50:59;;;;;;;6.93;3.05;;;16.10;59.40;;;;;;5380795;26;20004;-77
2024/04/11 12:53:25;;;;;;;5.28;2.80;;;16.20;58.90;;;;;;5377365;26;20047;-77